sensor_id;sensor_type;location;lat;lon;timestamp;P1;durP1;ratioP1;P2;durP2;ratioP2
8474;SDS011;4274;52.012;8.448;2023-09-18T00:01:49;58.30;;;6.13;;
8474;SDS011;4274;52.012;8.448;2023-09-18T00:04:15;53.10;;;5.70;;
8474;SDS011;4274;52.012;8.448;2023-09-18T00:06:40;53.20;;;6.17;;
8474;SDS011;4274;52.012;8.448;2023-09-18T00:09:06;55.43;;;6.30;;
8474;SDS011;4274;52.012;8.448;2023-09-18T00:11:36;54.50;;;6.40;;
8474;SDS011;4274;52.012;8.448;2023-09-18T00:14:03;54.83;;;6.50;;
8474;SDS011;4274;52.012;8.448;2023-09-18T00:16:29;58.50;;;5.60;;
8474;SDS011;4274;52.012;8.448;2023-09-18T00:18:54;48.50;;;5.37;;
8474;SDS011;4274;52.012;8.448;2023-09-18T00:21:20;54.20;;;6.00;;
8474;SDS011;4274;52.012;8.448;2023-09-18T00:23:46;55.17;;;6.70;;
8474;SDS011;4274;52.012;8.448;2023-09-18T00:26:11;55.77;;;5.77;;
8474;SDS011;4274;52.012;8.448;2023-09-18T00:28:37;59.93;;;6.67;;
8474;SDS011;4274;52.012;8.448;2023-09-18T00:31:02;53.83;;;6.23;;
8474;SDS011;4274;52.012;8.448;2023-09-18T00:33:28;51.70;;;6.13;;
8474;SDS011;4274;52.012;8.448;2023-09-18T00:35:54;63.40;;;6.30;;
8474;SDS011;4274;52.012;8.448;2023-09-18T00:38:19;58.83;;;5.93;;
8474;SDS011;4274;52.012;8.448;2023-09-18T00:40:45;50.63;;;5.60;;
8474;SDS011;4274;52.012;8.448;2023-09-18T00:43:11;54.10;;;5.97;;
8474;SDS011;4274;52.012;8.448;2023-09-18T00:45:38;49.03;;;5.10;;
8474;SDS011;4274;52.012;8.448;2023-09-18T00:48:06;51.20;;;5.07;;
8474;SDS011;4274;52.012;8.448;2023-09-18T00:50:32;51.63;;;6.07;;
8474;SDS011;4274;52.012;8.448;2023-09-18T00:52:58;53.57;;;6.27;;
8474;SDS011;4274;52.012;8.448;2023-09-18T00:55:24;53.90;;;5.70;;
8474;SDS011;4274;52.012;8.448;2023-09-18T00:57:51;51.03;;;5.70;;
8474;SDS011;4274;52.012;8.448;2023-09-18T01:00:17;52.40;;;5.33;;
8474;SDS011;4274;52.012;8.448;2023-09-18T01:02:43;51.37;;;6.00;;
8474;SDS011;4274;52.012;8.448;2023-09-18T01:05:10;53.33;;;5.97;;
8474;SDS011;4274;52.012;8.448;2023-09-18T01:07:35;60.70;;;5.73;;
8474;SDS011;4274;52.012;8.448;2023-09-18T01:10:01;56.10;;;7.70;;
8474;SDS011;4274;52.012;8.448;2023-09-18T01:12:36;56.93;;;5.43;;
8474;SDS011;4274;52.012;8.448;2023-09-18T01:15:21;56.63;;;6.00;;
8474;SDS011;4274;52.012;8.448;2023-09-18T01:17:51;51.50;;;5.10;;
8474;SDS011;4274;52.012;8.448;2023-09-18T01:20:17;62.07;;;5.90;;
8474;SDS011;4274;52.012;8.448;2023-09-18T01:22:42;55.23;;;5.50;;
8474;SDS011;4274;52.012;8.448;2023-09-18T01:25:08;49.70;;;6.17;;
8474;SDS011;4274;52.012;8.448;2023-09-18T01:27:34;49.87;;;5.30;;
8474;SDS011;4274;52.012;8.448;2023-09-18T01:29:59;49.20;;;5.40;;
8474;SDS011;4274;52.012;8.448;2023-09-18T01:32:27;54.90;;;5.17;;
8474;SDS011;4274;52.012;8.448;2023-09-18T01:34:56;53.37;;;5.40;;
8474;SDS011;4274;52.012;8.448;2023-09-18T01:37:23;47.83;;;4.70;;
8474;SDS011;4274;52.012;8.448;2023-09-18T01:39:51;50.17;;;5.67;;
8474;SDS011;4274;52.012;8.448;2023-09-18T01:42:18;51.93;;;5.80;;
8474;SDS011;4274;52.012;8.448;2023-09-18T01:44:44;51.67;;;5.47;;
8474;SDS011;4274;52.012;8.448;2023-09-18T01:47:12;62.00;;;5.73;;
8474;SDS011;4274;52.012;8.448;2023-09-18T01:49:40;49.77;;;4.80;;
8474;SDS011;4274;52.012;8.448;2023-09-18T01:52:07;52.57;;;5.50;;
8474;SDS011;4274;52.012;8.448;2023-09-18T01:54:34;53.67;;;5.40;;
8474;SDS011;4274;52.012;8.448;2023-09-18T01:57:00;52.90;;;4.97;;
8474;SDS011;4274;52.012;8.448;2023-09-18T01:59:26;50.37;;;5.37;;
8474;SDS011;4274;52.012;8.448;2023-09-18T02:01:52;52.07;;;5.43;;
8474;SDS011;4274;52.012;8.448;2023-09-18T02:04:18;54.10;;;5.20;;
8474;SDS011;4274;52.012;8.448;2023-09-18T02:06:45;58.50;;;5.30;;
8474;SDS011;4274;52.012;8.448;2023-09-18T02:09:12;52.67;;;5.00;;
8474;SDS011;4274;52.012;8.448;2023-09-18T02:11:38;52.47;;;5.47;;
8474;SDS011;4274;52.012;8.448;2023-09-18T02:14:05;52.67;;;5.57;;
8474;SDS011;4274;52.012;8.448;2023-09-18T02:16:32;53.23;;;4.80;;
8474;SDS011;4274;52.012;8.448;2023-09-18T02:19:02;59.43;;;5.10;;
8474;SDS011;4274;52.012;8.448;2023-09-18T02:21:29;56.50;;;5.00;;
8474;SDS011;4274;52.012;8.448;2023-09-18T02:23:55;51.83;;;4.70;;
8474;SDS011;4274;52.012;8.448;2023-09-18T02:26:21;48.10;;;5.17;;
8474;SDS011;4274;52.012;8.448;2023-09-18T02:28:48;51.13;;;4.97;;
8474;SDS011;4274;52.012;8.448;2023-09-18T02:31:14;52.10;;;4.70;;
8474;SDS011;4274;52.012;8.448;2023-09-18T02:33:40;53.10;;;4.50;;
8474;SDS011;4274;52.012;8.448;2023-09-18T02:36:08;59.27;;;5.00;;
8474;SDS011;4274;52.012;8.448;2023-09-18T02:38:33;50.10;;;5.37;;
8474;SDS011;4274;52.012;8.448;2023-09-18T02:40:59;51.20;;;5.60;;
8474;SDS011;4274;52.012;8.448;2023-09-18T02:43:25;55.33;;;4.90;;
8474;SDS011;4274;52.012;8.448;2023-09-18T02:45:51;51.73;;;5.17;;
8474;SDS011;4274;52.012;8.448;2023-09-18T02:48:17;48.53;;;4.67;;
8474;SDS011;4274;52.012;8.448;2023-09-18T02:50:43;56.93;;;5.93;;
8474;SDS011;4274;52.012;8.448;2023-09-18T02:53:12;70.00;;;5.33;;
8474;SDS011;4274;52.012;8.448;2023-09-18T02:55:44;53.10;;;5.60;;
8474;SDS011;4274;52.012;8.448;2023-09-18T02:58:09;53.67;;;5.30;;
8474;SDS011;4274;52.012;8.448;2023-09-18T03:00:40;57.63;;;6.03;;
8474;SDS011;4274;52.012;8.448;2023-09-18T03:03:09;52.37;;;4.90;;
8474;SDS011;4274;52.012;8.448;2023-09-18T03:05:35;49.67;;;4.50;;
8474;SDS011;4274;52.012;8.448;2023-09-18T03:08:02;52.87;;;6.00;;
8474;SDS011;4274;52.012;8.448;2023-09-18T03:10:28;51.67;;;5.40;;
8474;SDS011;4274;52.012;8.448;2023-09-18T03:12:57;54.40;;;5.33;;
8474;SDS011;4274;52.012;8.448;2023-09-18T03:15:22;52.10;;;5.93;;
8474;SDS011;4274;52.012;8.448;2023-09-18T03:17:50;49.50;;;5.03;;
8474;SDS011;4274;52.012;8.448;2023-09-18T03:20:15;54.93;;;5.67;;
8474;SDS011;4274;52.012;8.448;2023-09-18T03:22:41;47.97;;;4.70;;
8474;SDS011;4274;52.012;8.448;2023-09-18T03:25:07;50.87;;;5.20;;
8474;SDS011;4274;52.012;8.448;2023-09-18T03:27:32;54.13;;;5.00;;
8474;SDS011;4274;52.012;8.448;2023-09-18T03:29:58;48.83;;;5.07;;
8474;SDS011;4274;52.012;8.448;2023-09-18T03:32:23;47.43;;;5.17;;
8474;SDS011;4274;52.012;8.448;2023-09-18T03:34:53;48.27;;;5.07;;
8474;SDS011;4274;52.012;8.448;2023-09-18T03:37:19;48.70;;;5.20;;
8474;SDS011;4274;52.012;8.448;2023-09-18T03:39:44;50.30;;;5.30;;
8474;SDS011;4274;52.012;8.448;2023-09-18T03:42:10;48.50;;;4.90;;
8474;SDS011;4274;52.012;8.448;2023-09-18T03:44:35;50.63;;;5.20;;
8474;SDS011;4274;52.012;8.448;2023-09-18T03:47:01;51.23;;;5.03;;
8474;SDS011;4274;52.012;8.448;2023-09-18T03:49:28;48.10;;;5.03;;
8474;SDS011;4274;52.012;8.448;2023-09-18T03:51:54;50.57;;;5.93;;
8474;SDS011;4274;52.012;8.448;2023-09-18T03:54:19;51.97;;;5.17;;
8474;SDS011;4274;52.012;8.448;2023-09-18T03:56:45;51.60;;;5.30;;
8474;SDS011;4274;52.012;8.448;2023-09-18T03:59:11;50.07;;;5.60;;
8474;SDS011;4274;52.012;8.448;2023-09-18T04:01:37;51.77;;;5.90;;
8474;SDS011;4274;52.012;8.448;2023-09-18T04:04:03;49.10;;;5.20;;
8474;SDS011;4274;52.012;8.448;2023-09-18T04:06:42;49.90;;;5.07;;
8474;SDS011;4274;52.012;8.448;2023-09-18T04:09:09;53.13;;;4.90;;
8474;SDS011;4274;52.012;8.448;2023-09-18T04:11:35;48.73;;;4.97;;
8474;SDS011;4274;52.012;8.448;2023-09-18T04:14:01;49.47;;;5.40;;
8474;SDS011;4274;52.012;8.448;2023-09-18T04:16:28;52.43;;;5.80;;
8474;SDS011;4274;52.012;8.448;2023-09-18T04:18:55;49.03;;;5.50;;
8474;SDS011;4274;52.012;8.448;2023-09-18T04:21:22;50.77;;;5.80;;
8474;SDS011;4274;52.012;8.448;2023-09-18T04:23:48;53.07;;;6.03;;
8474;SDS011;4274;52.012;8.448;2023-09-18T04:26:20;47.37;;;5.20;;
8474;SDS011;4274;52.012;8.448;2023-09-18T04:28:46;50.87;;;7.43;;
8474;SDS011;4274;52.012;8.448;2023-09-18T04:31:12;59.37;;;6.07;;
8474;SDS011;4274;52.012;8.448;2023-09-18T04:33:38;47.97;;;5.63;;
8474;SDS011;4274;52.012;8.448;2023-09-18T04:36:03;56.93;;;6.70;;
8474;SDS011;4274;52.012;8.448;2023-09-18T04:38:29;49.13;;;5.17;;
8474;SDS011;4274;52.012;8.448;2023-09-18T04:40:58;64.77;;;5.63;;
8474;SDS011;4274;52.012;8.448;2023-09-18T04:43:24;54.63;;;5.90;;
8474;SDS011;4274;52.012;8.448;2023-09-18T04:45:50;48.80;;;5.23;;
8474;SDS011;4274;52.012;8.448;2023-09-18T04:48:16;47.13;;;5.33;;
8474;SDS011;4274;52.012;8.448;2023-09-18T04:50:42;50.70;;;5.70;;
8474;SDS011;4274;52.012;8.448;2023-09-18T04:53:08;51.90;;;5.77;;
8474;SDS011;4274;52.012;8.448;2023-09-18T04:55:34;48.47;;;5.33;;
8474;SDS011;4274;52.012;8.448;2023-09-18T04:57:59;51.43;;;5.80;;
8474;SDS011;4274;52.012;8.448;2023-09-18T05:00:25;52.00;;;5.30;;
8474;SDS011;4274;52.012;8.448;2023-09-18T05:02:51;48.27;;;5.40;;
8474;SDS011;4274;52.012;8.448;2023-09-18T05:05:17;51.10;;;5.53;;
8474;SDS011;4274;52.012;8.448;2023-09-18T05:07:43;50.07;;;5.77;;
8474;SDS011;4274;52.012;8.448;2023-09-18T05:10:09;55.57;;;5.60;;
8474;SDS011;4274;52.012;8.448;2023-09-18T05:12:35;49.10;;;6.13;;
8474;SDS011;4274;52.012;8.448;2023-09-18T05:15:02;51.80;;;6.03;;
8474;SDS011;4274;52.012;8.448;2023-09-18T05:17:39;48.47;;;5.50;;
8474;SDS011;4274;52.012;8.448;2023-09-18T05:20:08;53.73;;;5.77;;
8474;SDS011;4274;52.012;8.448;2023-09-18T05:22:37;48.73;;;5.73;;
8474;SDS011;4274;52.012;8.448;2023-09-18T05:25:02;53.87;;;6.60;;
8474;SDS011;4274;52.012;8.448;2023-09-18T05:27:29;50.57;;;5.37;;
8474;SDS011;4274;52.012;8.448;2023-09-18T05:29:55;52.70;;;8.03;;
8474;SDS011;4274;52.012;8.448;2023-09-18T05:32:20;51.93;;;6.07;;
8474;SDS011;4274;52.012;8.448;2023-09-18T05:34:46;50.30;;;6.40;;
8474;SDS011;4274;52.012;8.448;2023-09-18T05:37:11;51.37;;;6.33;;
8474;SDS011;4274;52.012;8.448;2023-09-18T05:39:38;50.03;;;6.13;;
8474;SDS011;4274;52.012;8.448;2023-09-18T05:42:03;48.87;;;6.00;;
8474;SDS011;4274;52.012;8.448;2023-09-18T05:44:29;48.57;;;6.23;;
8474;SDS011;4274;52.012;8.448;2023-09-18T05:46:55;50.13;;;6.97;;
8474;SDS011;4274;52.012;8.448;2023-09-18T05:49:21;52.30;;;5.77;;
8474;SDS011;4274;52.012;8.448;2023-09-18T05:51:46;48.00;;;5.77;;
8474;SDS011;4274;52.012;8.448;2023-09-18T05:54:13;50.63;;;6.33;;
8474;SDS011;4274;52.012;8.448;2023-09-18T05:56:39;50.43;;;6.10;;
8474;SDS011;4274;52.012;8.448;2023-09-18T05:59:04;50.67;;;6.70;;
8474;SDS011;4274;52.012;8.448;2023-09-18T06:01:30;47.97;;;6.10;;
8474;SDS011;4274;52.012;8.448;2023-09-18T06:03:57;53.20;;;6.17;;
8474;SDS011;4274;52.012;8.448;2023-09-18T06:06:23;53.43;;;5.90;;
8474;SDS011;4274;52.012;8.448;2023-09-18T06:08:50;56.03;;;6.00;;
8474;SDS011;4274;52.012;8.448;2023-09-18T06:11:18;49.30;;;5.70;;
8474;SDS011;4274;52.012;8.448;2023-09-18T06:13:44;52.53;;;5.50;;
8474;SDS011;4274;52.012;8.448;2023-09-18T06:16:09;49.07;;;5.67;;
8474;SDS011;4274;52.012;8.448;2023-09-18T06:18:35;50.47;;;5.77;;
8474;SDS011;4274;52.012;8.448;2023-09-18T06:21:03;49.50;;;6.20;;
8474;SDS011;4274;52.012;8.448;2023-09-18T06:23:29;47.20;;;5.40;;
8474;SDS011;4274;52.012;8.448;2023-09-18T06:25:55;53.50;;;6.43;;
8474;SDS011;4274;52.012;8.448;2023-09-18T06:28:22;49.33;;;5.50;;
8474;SDS011;4274;52.012;8.448;2023-09-18T06:30:48;47.63;;;5.50;;
8474;SDS011;4274;52.012;8.448;2023-09-18T06:33:13;48.97;;;5.80;;
8474;SDS011;4274;52.012;8.448;2023-09-18T06:35:39;49.43;;;5.93;;
8474;SDS011;4274;52.012;8.448;2023-09-18T06:38:05;48.40;;;5.83;;
8474;SDS011;4274;52.012;8.448;2023-09-18T06:40:31;51.40;;;5.53;;
8474;SDS011;4274;52.012;8.448;2023-09-18T06:43:00;49.30;;;5.97;;
8474;SDS011;4274;52.012;8.448;2023-09-18T06:45:26;48.80;;;5.37;;
8474;SDS011;4274;52.012;8.448;2023-09-18T06:47:52;47.80;;;5.13;;
8474;SDS011;4274;52.012;8.448;2023-09-18T06:50:18;49.90;;;5.30;;
8474;SDS011;4274;52.012;8.448;2023-09-18T06:52:44;52.50;;;5.87;;
8474;SDS011;4274;52.012;8.448;2023-09-18T06:55:09;49.17;;;6.07;;
8474;SDS011;4274;52.012;8.448;2023-09-18T06:57:35;53.90;;;6.20;;
8474;SDS011;4274;52.012;8.448;2023-09-18T07:00:01;51.20;;;5.27;;
8474;SDS011;4274;52.012;8.448;2023-09-18T07:02:26;50.47;;;5.53;;
8474;SDS011;4274;52.012;8.448;2023-09-18T07:04:52;49.87;;;5.60;;
8474;SDS011;4274;52.012;8.448;2023-09-18T07:07:18;59.73;;;6.40;;
8474;SDS011;4274;52.012;8.448;2023-09-18T07:09:50;57.17;;;5.77;;
8474;SDS011;4274;52.012;8.448;2023-09-18T07:12:18;50.47;;;4.77;;
8474;SDS011;4274;52.012;8.448;2023-09-18T07:14:45;54.47;;;5.13;;
8474;SDS011;4274;52.012;8.448;2023-09-18T07:17:11;49.33;;;5.33;;
8474;SDS011;4274;52.012;8.448;2023-09-18T07:19:36;48.20;;;5.10;;
8474;SDS011;4274;52.012;8.448;2023-09-18T07:22:02;49.43;;;5.10;;
8474;SDS011;4274;52.012;8.448;2023-09-18T07:24:28;53.97;;;5.80;;
8474;SDS011;4274;52.012;8.448;2023-09-18T07:26:53;48.50;;;4.93;;
8474;SDS011;4274;52.012;8.448;2023-09-18T07:29:20;58.13;;;5.30;;
8474;SDS011;4274;52.012;8.448;2023-09-18T07:31:46;48.97;;;4.67;;
8474;SDS011;4274;52.012;8.448;2023-09-18T07:34:12;52.63;;;4.80;;
8474;SDS011;4274;52.012;8.448;2023-09-18T07:36:38;53.57;;;5.30;;
8474;SDS011;4274;52.012;8.448;2023-09-18T07:39:04;54.60;;;5.77;;
8474;SDS011;4274;52.012;8.448;2023-09-18T07:41:31;58.40;;;5.10;;
8474;SDS011;4274;52.012;8.448;2023-09-18T07:43:57;49.77;;;4.43;;
8474;SDS011;4274;52.012;8.448;2023-09-18T07:46:24;57.37;;;4.40;;
8474;SDS011;4274;52.012;8.448;2023-09-18T07:48:49;49.47;;;3.93;;
8474;SDS011;4274;52.012;8.448;2023-09-18T07:51:15;50.00;;;3.83;;
8474;SDS011;4274;52.012;8.448;2023-09-18T07:53:43;56.50;;;4.23;;
8474;SDS011;4274;52.012;8.448;2023-09-18T07:56:09;50.70;;;3.63;;
8474;SDS011;4274;52.012;8.448;2023-09-18T07:58:35;58.40;;;3.50;;
8474;SDS011;4274;52.012;8.448;2023-09-18T08:01:06;51.07;;;3.03;;
8474;SDS011;4274;52.012;8.448;2023-09-18T08:03:35;51.47;;;3.63;;
8474;SDS011;4274;52.012;8.448;2023-09-18T08:06:01;51.50;;;3.40;;
8474;SDS011;4274;52.012;8.448;2023-09-18T08:08:26;53.47;;;3.47;;
8474;SDS011;4274;52.012;8.448;2023-09-18T08:10:52;47.50;;;3.10;;
8474;SDS011;4274;52.012;8.448;2023-09-18T08:13:18;50.20;;;3.70;;
8474;SDS011;4274;52.012;8.448;2023-09-18T08:15:48;50.67;;;2.77;;
8474;SDS011;4274;52.012;8.448;2023-09-18T08:18:13;51.80;;;3.60;;
8474;SDS011;4274;52.012;8.448;2023-09-18T08:20:45;48.23;;;2.93;;
8474;SDS011;4274;52.012;8.448;2023-09-18T08:23:10;58.40;;;3.17;;
8474;SDS011;4274;52.012;8.448;2023-09-18T08:25:36;48.10;;;3.40;;
8474;SDS011;4274;52.012;8.448;2023-09-18T08:28:02;45.93;;;2.80;;
8474;SDS011;4274;52.012;8.448;2023-09-18T08:30:29;49.57;;;3.30;;
8474;SDS011;4274;52.012;8.448;2023-09-18T08:32:55;49.90;;;3.13;;
8474;SDS011;4274;52.012;8.448;2023-09-18T08:35:21;58.73;;;2.90;;
8474;SDS011;4274;52.012;8.448;2023-09-18T08:37:47;46.07;;;2.80;;
8474;SDS011;4274;52.012;8.448;2023-09-18T08:40:13;55.30;;;3.40;;
8474;SDS011;4274;52.012;8.448;2023-09-18T08:42:42;47.83;;;3.13;;
8474;SDS011;4274;52.012;8.448;2023-09-18T08:45:33;49.13;;;3.10;;
8474;SDS011;4274;52.012;8.448;2023-09-18T08:48:08;48.60;;;3.27;;
8474;SDS011;4274;52.012;8.448;2023-09-18T08:50:34;50.63;;;3.30;;
8474;SDS011;4274;52.012;8.448;2023-09-18T08:53:03;49.07;;;3.00;;
8474;SDS011;4274;52.012;8.448;2023-09-18T08:55:28;57.23;;;3.67;;
8474;SDS011;4274;52.012;8.448;2023-09-18T08:57:55;46.60;;;2.73;;
8474;SDS011;4274;52.012;8.448;2023-09-18T09:00:23;48.47;;;2.90;;
8474;SDS011;4274;52.012;8.448;2023-09-18T09:02:49;48.97;;;3.17;;
8474;SDS011;4274;52.012;8.448;2023-09-18T09:05:16;57.93;;;3.27;;
8474;SDS011;4274;52.012;8.448;2023-09-18T09:07:42;51.70;;;3.37;;
8474;SDS011;4274;52.012;8.448;2023-09-18T09:10:08;50.40;;;3.17;;
8474;SDS011;4274;52.012;8.448;2023-09-18T09:12:46;46.73;;;2.87;;
8474;SDS011;4274;52.012;8.448;2023-09-18T09:15:11;51.47;;;3.50;;
8474;SDS011;4274;52.012;8.448;2023-09-18T09:17:37;53.83;;;3.27;;
8474;SDS011;4274;52.012;8.448;2023-09-18T09:20:10;52.87;;;2.97;;
8474;SDS011;4274;52.012;8.448;2023-09-18T09:22:38;48.47;;;3.20;;
8474;SDS011;4274;52.012;8.448;2023-09-18T09:25:11;49.83;;;3.10;;
8474;SDS011;4274;52.012;8.448;2023-09-18T09:27:53;48.13;;;2.70;;
8474;SDS011;4274;52.012;8.448;2023-09-18T09:30:21;47.93;;;2.63;;
8474;SDS011;4274;52.012;8.448;2023-09-18T09:32:52;54.17;;;2.77;;
8474;SDS011;4274;52.012;8.448;2023-09-18T09:35:29;52.30;;;2.73;;
8474;SDS011;4274;52.012;8.448;2023-09-18T09:37:58;48.17;;;2.93;;
8474;SDS011;4274;52.012;8.448;2023-09-18T09:40:26;48.10;;;3.07;;
8474;SDS011;4274;52.012;8.448;2023-09-18T09:42:53;49.93;;;2.90;;
8474;SDS011;4274;52.012;8.448;2023-09-18T09:45:26;49.07;;;3.50;;
8474;SDS011;4274;52.012;8.448;2023-09-18T09:48:00;48.47;;;3.10;;
8474;SDS011;4274;52.012;8.448;2023-09-18T09:50:29;50.43;;;3.10;;
8474;SDS011;4274;52.012;8.448;2023-09-18T09:52:55;47.20;;;3.30;;
8474;SDS011;4274;52.012;8.448;2023-09-18T09:57:56;49.50;;;3.63;;
8474;SDS011;4274;52.012;8.448;2023-09-18T10:03:14;52.20;;;2.80;;
8474;SDS011;4274;52.012;8.448;2023-09-18T10:05:42;52.27;;;3.33;;
8474;SDS011;4274;52.012;8.448;2023-09-18T10:08:13;49.17;;;2.83;;
8474;SDS011;4274;52.012;8.448;2023-09-18T10:10:48;49.60;;;3.10;;
8474;SDS011;4274;52.012;8.448;2023-09-18T10:13:16;47.90;;;2.90;;
8474;SDS011;4274;52.012;8.448;2023-09-18T10:15:51;49.80;;;2.90;;
8474;SDS011;4274;52.012;8.448;2023-09-18T10:21:10;47.20;;;2.90;;
8474;SDS011;4274;52.012;8.448;2023-09-18T10:23:50;49.90;;;3.17;;
8474;SDS011;4274;52.012;8.448;2023-09-18T10:26:39;48.37;;;2.90;;
8474;SDS011;4274;52.012;8.448;2023-09-18T10:29:12;49.23;;;3.00;;
8474;SDS011;4274;52.012;8.448;2023-09-18T10:31:39;45.37;;;2.40;;
8474;SDS011;4274;52.012;8.448;2023-09-18T10:34:08;48.00;;;3.10;;
8474;SDS011;4274;52.012;8.448;2023-09-18T10:36:35;48.50;;;3.27;;
8474;SDS011;4274;52.012;8.448;2023-09-18T10:39:03;46.87;;;2.80;;
8474;SDS011;4274;52.012;8.448;2023-09-18T10:41:33;50.13;;;3.30;;
8474;SDS011;4274;52.012;8.448;2023-09-18T10:44:00;46.80;;;3.13;;
8474;SDS011;4274;52.012;8.448;2023-09-18T10:46:27;51.90;;;3.10;;
8474;SDS011;4274;52.012;8.448;2023-09-18T10:48:53;45.30;;;2.50;;
8474;SDS011;4274;52.012;8.448;2023-09-18T10:51:20;49.27;;;3.33;;
8474;SDS011;4274;52.012;8.448;2023-09-18T10:53:47;47.73;;;3.40;;
8474;SDS011;4274;52.012;8.448;2023-09-18T10:56:16;46.30;;;3.00;;
8474;SDS011;4274;52.012;8.448;2023-09-18T10:58:42;47.07;;;3.13;;
8474;SDS011;4274;52.012;8.448;2023-09-18T11:01:10;50.00;;;3.50;;
8474;SDS011;4274;52.012;8.448;2023-09-18T11:03:37;52.53;;;3.00;;
8474;SDS011;4274;52.012;8.448;2023-09-18T11:06:04;48.50;;;2.83;;
8474;SDS011;4274;52.012;8.448;2023-09-18T11:08:42;48.40;;;3.10;;
8474;SDS011;4274;52.012;8.448;2023-09-18T11:11:11;51.97;;;2.80;;
8474;SDS011;4274;52.012;8.448;2023-09-18T11:13:42;47.20;;;3.10;;
8474;SDS011;4274;52.012;8.448;2023-09-18T11:18:51;50.00;;;2.70;;
8474;SDS011;4274;52.012;8.448;2023-09-18T11:21:28;45.50;;;2.90;;
8474;SDS011;4274;52.012;8.448;2023-09-18T11:23:58;47.00;;;2.90;;
8474;SDS011;4274;52.012;8.448;2023-09-18T11:26:28;44.97;;;2.77;;
8474;SDS011;4274;52.012;8.448;2023-09-18T11:28:55;47.87;;;3.07;;
8474;SDS011;4274;52.012;8.448;2023-09-18T11:31:20;46.83;;;3.20;;
8474;SDS011;4274;52.012;8.448;2023-09-18T11:34:11;49.67;;;2.70;;
8474;SDS011;4274;52.012;8.448;2023-09-18T11:36:38;45.73;;;2.73;;
8474;SDS011;4274;52.012;8.448;2023-09-18T11:39:03;49.30;;;2.50;;
8474;SDS011;4274;52.012;8.448;2023-09-18T11:41:33;46.50;;;2.37;;
8474;SDS011;4274;52.012;8.448;2023-09-18T11:46:52;48.90;;;2.30;;
8474;SDS011;4274;52.012;8.448;2023-09-18T11:49:22;47.37;;;2.50;;
8474;SDS011;4274;52.012;8.448;2023-09-18T11:51:51;50.10;;;2.40;;
8474;SDS011;4274;52.012;8.448;2023-09-18T11:54:17;47.30;;;2.83;;
8474;SDS011;4274;52.012;8.448;2023-09-18T11:56:43;45.53;;;2.47;;
8474;SDS011;4274;52.012;8.448;2023-09-18T11:59:09;49.70;;;2.10;;
8474;SDS011;4274;52.012;8.448;2023-09-18T12:01:36;51.17;;;2.40;;
8474;SDS011;4274;52.012;8.448;2023-09-18T12:04:04;46.80;;;2.20;;
8474;SDS011;4274;52.012;8.448;2023-09-18T12:06:34;45.30;;;2.10;;
8474;SDS011;4274;52.012;8.448;2023-09-18T12:09:01;47.03;;;2.40;;
8474;SDS011;4274;52.012;8.448;2023-09-18T12:11:28;54.17;;;2.83;;
8474;SDS011;4274;52.012;8.448;2023-09-18T12:13:54;52.90;;;2.37;;
8474;SDS011;4274;52.012;8.448;2023-09-18T12:16:20;48.73;;;2.60;;
8474;SDS011;4274;52.012;8.448;2023-09-18T12:18:46;47.43;;;2.13;;
8474;SDS011;4274;52.012;8.448;2023-09-18T12:21:13;47.80;;;2.23;;
8474;SDS011;4274;52.012;8.448;2023-09-18T12:23:40;48.67;;;2.50;;
8474;SDS011;4274;52.012;8.448;2023-09-18T12:26:10;46.40;;;2.20;;
8474;SDS011;4274;52.012;8.448;2023-09-18T12:28:40;46.30;;;1.90;;
8474;SDS011;4274;52.012;8.448;2023-09-18T12:31:06;47.83;;;2.50;;
8474;SDS011;4274;52.012;8.448;2023-09-18T12:33:36;47.17;;;2.70;;
8474;SDS011;4274;52.012;8.448;2023-09-18T12:36:03;54.10;;;2.40;;
8474;SDS011;4274;52.012;8.448;2023-09-18T12:38:30;46.40;;;2.23;;
8474;SDS011;4274;52.012;8.448;2023-09-18T12:40:56;55.77;;;2.43;;
8474;SDS011;4274;52.012;8.448;2023-09-18T12:43:25;48.20;;;2.30;;
8474;SDS011;4274;52.012;8.448;2023-09-18T12:45:54;46.10;;;2.40;;
8474;SDS011;4274;52.012;8.448;2023-09-18T12:48:21;50.97;;;2.87;;
8474;SDS011;4274;52.012;8.448;2023-09-18T12:50:51;49.07;;;2.37;;
8474;SDS011;4274;52.012;8.448;2023-09-18T12:53:21;46.07;;;2.23;;
8474;SDS011;4274;52.012;8.448;2023-09-18T12:55:47;47.23;;;2.40;;
8474;SDS011;4274;52.012;8.448;2023-09-18T12:58:17;46.00;;;2.13;;
8474;SDS011;4274;52.012;8.448;2023-09-18T13:00:44;48.63;;;2.30;;
8474;SDS011;4274;52.012;8.448;2023-09-18T13:03:12;46.10;;;2.20;;
8474;SDS011;4274;52.012;8.448;2023-09-18T13:05:38;46.70;;;2.20;;
8474;SDS011;4274;52.012;8.448;2023-09-18T13:08:04;46.97;;;2.53;;
8474;SDS011;4274;52.012;8.448;2023-09-18T13:13:15;49.13;;;2.07;;
8474;SDS011;4274;52.012;8.448;2023-09-18T13:15:44;47.20;;;2.20;;
8474;SDS011;4274;52.012;8.448;2023-09-18T13:18:12;46.47;;;1.97;;
8474;SDS011;4274;52.012;8.448;2023-09-18T13:20:38;54.17;;;2.30;;
8474;SDS011;4274;52.012;8.448;2023-09-18T13:23:07;50.27;;;2.43;;
8474;SDS011;4274;52.012;8.448;2023-09-18T13:25:34;46.60;;;2.20;;
8474;SDS011;4274;52.012;8.448;2023-09-18T13:28:03;48.10;;;2.20;;
8474;SDS011;4274;52.012;8.448;2023-09-18T13:30:31;45.70;;;2.00;;
8474;SDS011;4274;52.012;8.448;2023-09-18T13:33:03;46.10;;;2.10;;
8474;SDS011;4274;52.012;8.448;2023-09-18T13:35:41;48.00;;;2.40;;
8474;SDS011;4274;52.012;8.448;2023-09-18T13:38:08;46.33;;;2.30;;
8474;SDS011;4274;52.012;8.448;2023-09-18T13:40:36;49.30;;;2.60;;
8474;SDS011;4274;52.012;8.448;2023-09-18T13:43:03;50.50;;;2.80;;
8474;SDS011;4274;52.012;8.448;2023-09-18T13:45:30;51.90;;;2.83;;
8474;SDS011;4274;52.012;8.448;2023-09-18T13:47:57;48.10;;;2.27;;
8474;SDS011;4274;52.012;8.448;2023-09-18T13:50:22;48.00;;;2.80;;
8474;SDS011;4274;52.012;8.448;2023-09-18T13:52:48;51.10;;;2.30;;
8474;SDS011;4274;52.012;8.448;2023-09-18T13:55:14;50.63;;;2.70;;
8474;SDS011;4274;52.012;8.448;2023-09-18T13:57:39;48.00;;;2.43;;
8474;SDS011;4274;52.012;8.448;2023-09-18T14:00:05;48.03;;;2.50;;
8474;SDS011;4274;52.012;8.448;2023-09-18T14:02:35;48.77;;;2.83;;
8474;SDS011;4274;52.012;8.448;2023-09-18T14:05:01;48.70;;;2.57;;
8474;SDS011;4274;52.012;8.448;2023-09-18T14:07:28;54.53;;;2.90;;
8474;SDS011;4274;52.012;8.448;2023-09-18T14:09:54;47.57;;;2.63;;
8474;SDS011;4274;52.012;8.448;2023-09-18T14:12:19;48.67;;;2.70;;
8474;SDS011;4274;52.012;8.448;2023-09-18T14:14:45;47.30;;;3.00;;
8474;SDS011;4274;52.012;8.448;2023-09-18T14:17:11;47.10;;;2.33;;
8474;SDS011;4274;52.012;8.448;2023-09-18T14:19:37;48.20;;;2.83;;
8474;SDS011;4274;52.012;8.448;2023-09-18T14:22:03;53.27;;;2.60;;
8474;SDS011;4274;52.012;8.448;2023-09-18T14:24:30;54.70;;;2.63;;
8474;SDS011;4274;52.012;8.448;2023-09-18T14:26:59;51.07;;;3.50;;
8474;SDS011;4274;52.012;8.448;2023-09-18T14:29:28;47.90;;;3.07;;
8474;SDS011;4274;52.012;8.448;2023-09-18T14:31:58;47.70;;;2.70;;
8474;SDS011;4274;52.012;8.448;2023-09-18T14:34:27;50.90;;;2.97;;
8474;SDS011;4274;52.012;8.448;2023-09-18T14:36:55;47.17;;;3.27;;
8474;SDS011;4274;52.012;8.448;2023-09-18T14:39:21;47.93;;;2.80;;
8474;SDS011;4274;52.012;8.448;2023-09-18T14:41:46;47.70;;;3.00;;
8474;SDS011;4274;52.012;8.448;2023-09-18T14:44:13;48.50;;;3.13;;
8474;SDS011;4274;52.012;8.448;2023-09-18T14:46:38;46.90;;;2.50;;
8474;SDS011;4274;52.012;8.448;2023-09-18T14:49:04;46.37;;;2.63;;
8474;SDS011;4274;52.012;8.448;2023-09-18T14:51:32;54.13;;;3.00;;
8474;SDS011;4274;52.012;8.448;2023-09-18T14:53:58;48.37;;;2.83;;
8474;SDS011;4274;52.012;8.448;2023-09-18T14:56:24;47.13;;;2.53;;
8474;SDS011;4274;52.012;8.448;2023-09-18T14:58:50;48.80;;;2.90;;
8474;SDS011;4274;52.012;8.448;2023-09-18T15:01:20;52.53;;;3.03;;
8474;SDS011;4274;52.012;8.448;2023-09-18T15:03:48;47.70;;;2.53;;
8474;SDS011;4274;52.012;8.448;2023-09-18T15:06:14;47.87;;;2.90;;
8474;SDS011;4274;52.012;8.448;2023-09-18T15:08:40;48.20;;;2.40;;
8474;SDS011;4274;52.012;8.448;2023-09-18T15:11:06;46.10;;;2.57;;
8474;SDS011;4274;52.012;8.448;2023-09-18T15:13:32;46.17;;;2.83;;
8474;SDS011;4274;52.012;8.448;2023-09-18T15:15:59;47.67;;;2.50;;
8474;SDS011;4274;52.012;8.448;2023-09-18T15:18:28;44.90;;;2.10;;